sensor_id;sensor_type;location;lat;lon;timestamp;P1;durP1;ratioP1;P2;durP2;ratioP2
6135;SDS011;24008;42.664;23.372;2023-05-29T00:00:59;9.50;;;7.80;;
6135;SDS011;24008;42.664;23.372;2023-05-29T00:03:26;11.00;;;7.73;;
6135;SDS011;24008;42.664;23.372;2023-05-29T00:05:53;11.63;;;6.97;;
6135;SDS011;24008;42.664;23.372;2023-05-29T00:08:21;11.37;;;7.93;;
6135;SDS011;24008;42.664;23.372;2023-05-29T00:10:47;11.17;;;8.07;;
6135;SDS011;24008;42.664;23.372;2023-05-29T00:13:14;14.23;;;7.67;;
6135;SDS011;24008;42.664;23.372;2023-05-29T00:15:41;12.77;;;7.37;;
6135;SDS011;24008;42.664;23.372;2023-05-29T00:18:08;15.40;;;8.20;;
6135;SDS011;24008;42.664;23.372;2023-05-29T00:20:35;13.33;;;8.77;;
6135;SDS011;24008;42.664;23.372;2023-05-29T00:23:02;11.13;;;7.60;;
6135;SDS011;24008;42.664;23.372;2023-05-29T00:25:32;9.93;;;7.60;;
6135;SDS011;24008;42.664;23.372;2023-05-29T00:27:59;10.67;;;7.63;;
6135;SDS011;24008;42.664;23.372;2023-05-29T00:30:25;10.30;;;7.90;;
6135;SDS011;24008;42.664;23.372;2023-05-29T00:32:52;11.90;;;7.27;;
6135;SDS011;24008;42.664;23.372;2023-05-29T00:35:19;10.47;;;7.83;;
6135;SDS011;24008;42.664;23.372;2023-05-29T00:37:46;16.10;;;7.33;;
6135;SDS011;24008;42.664;23.372;2023-05-29T00:40:12;9.33;;;6.97;;
6135;SDS011;24008;42.664;23.372;2023-05-29T00:42:40;11.23;;;7.43;;
6135;SDS011;24008;42.664;23.372;2023-05-29T00:45:07;11.97;;;7.63;;
6135;SDS011;24008;42.664;23.372;2023-05-29T00:47:34;9.97;;;7.67;;
6135;SDS011;24008;42.664;23.372;2023-05-29T00:50:02;11.77;;;7.90;;
6135;SDS011;24008;42.664;23.372;2023-05-29T00:52:29;14.57;;;8.60;;
6135;SDS011;24008;42.664;23.372;2023-05-29T00:54:56;15.17;;;8.00;;
6135;SDS011;24008;42.664;23.372;2023-05-29T00:57:26;13.43;;;7.70;;
6135;SDS011;24008;42.664;23.372;2023-05-29T00:59:54;13.37;;;8.53;;
6135;SDS011;24008;42.664;23.372;2023-05-29T01:02:22;13.60;;;7.90;;
6135;SDS011;24008;42.664;23.372;2023-05-29T01:04:49;11.27;;;7.80;;
6135;SDS011;24008;42.664;23.372;2023-05-29T01:07:19;11.40;;;7.53;;
6135;SDS011;24008;42.664;23.372;2023-05-29T01:09:46;9.13;;;6.67;;
6135;SDS011;24008;42.664;23.372;2023-05-29T01:12:19;13.87;;;8.53;;
6135;SDS011;24008;42.664;23.372;2023-05-29T01:14:59;13.67;;;8.37;;
6135;SDS011;24008;42.664;23.372;2023-05-29T01:17:37;12.63;;;9.30;;
6135;SDS011;24008;42.664;23.372;2023-05-29T01:20:17;18.03;;;9.03;;
6135;SDS011;24008;42.664;23.372;2023-05-29T01:23:04;12.10;;;8.20;;
6135;SDS011;24008;42.664;23.372;2023-05-29T01:25:47;11.30;;;7.67;;
6135;SDS011;24008;42.664;23.372;2023-05-29T01:28:26;13.97;;;9.23;;
6135;SDS011;24008;42.664;23.372;2023-05-29T01:30:58;12.23;;;8.33;;
6135;SDS011;24008;42.664;23.372;2023-05-29T01:33:27;11.37;;;8.30;;
6135;SDS011;24008;42.664;23.372;2023-05-29T01:35:54;12.13;;;7.90;;
6135;SDS011;24008;42.664;23.372;2023-05-29T01:38:20;12.23;;;7.80;;
6135;SDS011;24008;42.664;23.372;2023-05-29T01:40:47;11.63;;;7.70;;
6135;SDS011;24008;42.664;23.372;2023-05-29T01:43:14;16.87;;;8.70;;
6135;SDS011;24008;42.664;23.372;2023-05-29T01:45:43;9.93;;;8.37;;
6135;SDS011;24008;42.664;23.372;2023-05-29T01:48:10;12.33;;;7.63;;
6135;SDS011;24008;42.664;23.372;2023-05-29T01:50:37;10.97;;;7.93;;
6135;SDS011;24008;42.664;23.372;2023-05-29T01:53:05;14.17;;;8.40;;
6135;SDS011;24008;42.664;23.372;2023-05-29T01:55:31;12.23;;;8.37;;
6135;SDS011;24008;42.664;23.372;2023-05-29T01:57:58;12.47;;;8.33;;
6135;SDS011;24008;42.664;23.372;2023-05-29T02:00:26;10.50;;;8.27;;
6135;SDS011;24008;42.664;23.372;2023-05-29T02:02:54;12.83;;;8.57;;
6135;SDS011;24008;42.664;23.372;2023-05-29T02:05:20;11.80;;;8.33;;
6135;SDS011;24008;42.664;23.372;2023-05-29T02:07:47;12.23;;;8.90;;
6135;SDS011;24008;42.664;23.372;2023-05-29T02:10:14;12.40;;;9.00;;
6135;SDS011;24008;42.664;23.372;2023-05-29T02:12:41;11.67;;;9.10;;
6135;SDS011;24008;42.664;23.372;2023-05-29T02:15:08;16.10;;;9.17;;
6135;SDS011;24008;42.664;23.372;2023-05-29T02:17:36;10.97;;;8.57;;
6135;SDS011;24008;42.664;23.372;2023-05-29T02:20:04;13.30;;;8.83;;
6135;SDS011;24008;42.664;23.372;2023-05-29T02:22:32;16.43;;;9.53;;
6135;SDS011;24008;42.664;23.372;2023-05-29T02:24:59;15.30;;;9.47;;
6135;SDS011;24008;42.664;23.372;2023-05-29T02:27:26;18.37;;;10.10;;
6135;SDS011;24008;42.664;23.372;2023-05-29T02:29:52;17.43;;;11.07;;
6135;SDS011;24008;42.664;23.372;2023-05-29T02:32:19;13.43;;;10.10;;
6135;SDS011;24008;42.664;23.372;2023-05-29T02:34:47;20.43;;;10.20;;
6135;SDS011;24008;42.664;23.372;2023-05-29T02:37:16;13.90;;;9.57;;
6135;SDS011;24008;42.664;23.372;2023-05-29T02:39:43;15.00;;;10.47;;
6135;SDS011;24008;42.664;23.372;2023-05-29T02:42:09;14.20;;;10.13;;
6135;SDS011;24008;42.664;23.372;2023-05-29T02:44:36;16.83;;;10.73;;
6135;SDS011;24008;42.664;23.372;2023-05-29T02:47:03;15.83;;;9.87;;
6135;SDS011;24008;42.664;23.372;2023-05-29T02:49:30;14.87;;;9.70;;
6135;SDS011;24008;42.664;23.372;2023-05-29T02:51:56;14.43;;;10.97;;
6135;SDS011;24008;42.664;23.372;2023-05-29T02:54:24;12.60;;;9.33;;
6135;SDS011;24008;42.664;23.372;2023-05-29T02:56:51;16.70;;;10.70;;
6135;SDS011;24008;42.664;23.372;2023-05-29T02:59:18;18.23;;;10.47;;
6135;SDS011;24008;42.664;23.372;2023-05-29T03:01:45;16.53;;;11.03;;
6135;SDS011;24008;42.664;23.372;2023-05-29T03:04:12;16.40;;;10.23;;
6135;SDS011;24008;42.664;23.372;2023-05-29T03:06:39;17.50;;;11.20;;
6135;SDS011;24008;42.664;23.372;2023-05-29T03:09:06;17.27;;;9.90;;
6135;SDS011;24008;42.664;23.372;2023-05-29T03:11:34;13.83;;;9.50;;
6135;SDS011;24008;42.664;23.372;2023-05-29T03:14:03;17.20;;;10.87;;
6135;SDS011;24008;42.664;23.372;2023-05-29T03:16:29;15.03;;;9.97;;
6135;SDS011;24008;42.664;23.372;2023-05-29T03:18:56;16.27;;;11.53;;
6135;SDS011;24008;42.664;23.372;2023-05-29T03:21:23;13.90;;;10.80;;
6135;SDS011;24008;42.664;23.372;2023-05-29T03:23:50;14.27;;;10.60;;
6135;SDS011;24008;42.664;23.372;2023-05-29T03:26:17;14.63;;;10.63;;
6135;SDS011;24008;42.664;23.372;2023-05-29T03:28:45;15.50;;;10.30;;
6135;SDS011;24008;42.664;23.372;2023-05-29T03:31:11;15.57;;;10.73;;
6135;SDS011;24008;42.664;23.372;2023-05-29T03:33:38;17.80;;;11.70;;
6135;SDS011;24008;42.664;23.372;2023-05-29T03:36:05;38.47;;;11.87;;
6135;SDS011;24008;42.664;23.372;2023-05-29T03:38:33;22.30;;;10.97;;
6135;SDS011;24008;42.664;23.372;2023-05-29T03:41:00;15.53;;;10.57;;
6135;SDS011;24008;42.664;23.372;2023-05-29T03:43:27;19.47;;;10.60;;
6135;SDS011;24008;42.664;23.372;2023-05-29T03:45:55;17.03;;;10.30;;
6135;SDS011;24008;42.664;23.372;2023-05-29T03:48:21;16.57;;;10.77;;
6135;SDS011;24008;42.664;23.372;2023-05-29T03:50:48;17.80;;;10.53;;
6135;SDS011;24008;42.664;23.372;2023-05-29T03:53:15;18.50;;;10.27;;
6135;SDS011;24008;42.664;23.372;2023-05-29T03:55:42;18.80;;;12.33;;
6135;SDS011;24008;42.664;23.372;2023-05-29T03:58:08;12.57;;;8.90;;
6135;SDS011;24008;42.664;23.372;2023-05-29T04:00:37;10.80;;;8.73;;
6135;SDS011;24008;42.664;23.372;2023-05-29T04:03:05;13.93;;;9.17;;
6135;SDS011;24008;42.664;23.372;2023-05-29T04:05:32;14.70;;;9.40;;
6135;SDS011;24008;42.664;23.372;2023-05-29T04:08:00;12.80;;;9.97;;
6135;SDS011;24008;42.664;23.372;2023-05-29T04:10:29;15.87;;;10.03;;
6135;SDS011;24008;42.664;23.372;2023-05-29T04:12:58;19.37;;;10.27;;
6135;SDS011;24008;42.664;23.372;2023-05-29T04:15:26;15.37;;;10.10;;
6135;SDS011;24008;42.664;23.372;2023-05-29T04:17:53;13.93;;;9.47;;
6135;SDS011;24008;42.664;23.372;2023-05-29T04:20:21;14.37;;;9.30;;
6135;SDS011;24008;42.664;23.372;2023-05-29T04:22:48;14.60;;;9.83;;
6135;SDS011;24008;42.664;23.372;2023-05-29T04:25:15;11.83;;;9.60;;
6135;SDS011;24008;42.664;23.372;2023-05-29T04:27:43;13.67;;;9.17;;
6135;SDS011;24008;42.664;23.372;2023-05-29T04:30:13;23.20;;;16.23;;
6135;SDS011;24008;42.664;23.372;2023-05-29T04:32:41;16.80;;;12.00;;
6135;SDS011;24008;42.664;23.372;2023-05-29T04:35:08;16.83;;;9.07;;
6135;SDS011;24008;42.664;23.372;2023-05-29T04:37:37;16.40;;;9.10;;
6135;SDS011;24008;42.664;23.372;2023-05-29T04:40:04;10.70;;;8.17;;
6135;SDS011;24008;42.664;23.372;2023-05-29T04:42:34;12.03;;;8.30;;
6135;SDS011;24008;42.664;23.372;2023-05-29T04:45:01;12.47;;;9.00;;
6135;SDS011;24008;42.664;23.372;2023-05-29T04:47:28;11.43;;;8.03;;
6135;SDS011;24008;42.664;23.372;2023-05-29T04:49:58;14.50;;;8.10;;
6135;SDS011;24008;42.664;23.372;2023-05-29T04:52:25;13.50;;;7.83;;
6135;SDS011;24008;42.664;23.372;2023-05-29T04:54:53;16.73;;;9.10;;
6135;SDS011;24008;42.664;23.372;2023-05-29T04:57:21;13.53;;;8.60;;
6135;SDS011;24008;42.664;23.372;2023-05-29T04:59:48;12.73;;;8.40;;
6135;SDS011;24008;42.664;23.372;2023-05-29T05:02:15;16.00;;;8.43;;
6135;SDS011;24008;42.664;23.372;2023-05-29T05:04:42;16.93;;;10.37;;
6135;SDS011;24008;42.664;23.372;2023-05-29T05:07:11;21.50;;;10.90;;
6135;SDS011;24008;42.664;23.372;2023-05-29T05:09:38;18.10;;;11.03;;
6135;SDS011;24008;42.664;23.372;2023-05-29T05:12:06;13.80;;;10.23;;
6135;SDS011;24008;42.664;23.372;2023-05-29T05:14:34;23.90;;;10.90;;
6135;SDS011;24008;42.664;23.372;2023-05-29T05:17:00;16.50;;;9.77;;
6135;SDS011;24008;42.664;23.372;2023-05-29T05:19:27;16.03;;;9.90;;
6135;SDS011;24008;42.664;23.372;2023-05-29T05:21:54;16.95;;;10.82;;
6135;SDS011;24008;42.664;23.372;2023-05-29T05:24:21;18.10;;;10.55;;
6135;SDS011;24008;42.664;23.372;2023-05-29T05:26:48;15.83;;;9.97;;
6135;SDS011;24008;42.664;23.372;2023-05-29T05:29:16;23.13;;;10.63;;
6135;SDS011;24008;42.664;23.372;2023-05-29T05:31:43;16.40;;;10.60;;
6135;SDS011;24008;42.664;23.372;2023-05-29T05:34:10;18.67;;;10.83;;
6135;SDS011;24008;42.664;23.372;2023-05-29T05:36:37;17.80;;;10.93;;
6135;SDS011;24008;42.664;23.372;2023-05-29T05:39:04;19.53;;;10.33;;
6135;SDS011;24008;42.664;23.372;2023-05-29T05:41:31;19.23;;;10.63;;
6135;SDS011;24008;42.664;23.372;2023-05-29T05:43:58;13.20;;;9.20;;
6135;SDS011;24008;42.664;23.372;2023-05-29T05:46:26;17.70;;;9.43;;
6135;SDS011;24008;42.664;23.372;2023-05-29T05:48:53;15.40;;;8.30;;
6135;SDS011;24008;42.664;23.372;2023-05-29T05:51:25;12.73;;;6.40;;
6135;SDS011;24008;42.664;23.372;2023-05-29T05:53:51;9.67;;;6.60;;
6135;SDS011;24008;42.664;23.372;2023-05-29T05:56:18;8.47;;;6.27;;
6135;SDS011;24008;42.664;23.372;2023-05-29T05:58:45;12.07;;;6.90;;
6135;SDS011;24008;42.664;23.372;2023-05-29T06:01:13;14.03;;;6.53;;
6135;SDS011;24008;42.664;23.372;2023-05-29T06:03:41;12.13;;;6.23;;
6135;SDS011;24008;42.664;23.372;2023-05-29T06:06:08;8.40;;;5.90;;
6135;SDS011;24008;42.664;23.372;2023-05-29T06:08:35;9.60;;;5.83;;
6135;SDS011;24008;42.664;23.372;2023-05-29T06:11:02;7.80;;;5.87;;
6135;SDS011;24008;42.664;23.372;2023-05-29T06:13:29;8.33;;;5.40;;
6135;SDS011;24008;42.664;23.372;2023-05-29T06:15:56;10.37;;;5.87;;
6135;SDS011;24008;42.664;23.372;2023-05-29T06:18:23;6.63;;;3.80;;
6135;SDS011;24008;42.664;23.372;2023-05-29T06:20:52;6.70;;;3.83;;
6135;SDS011;24008;42.664;23.372;2023-05-29T06:23:19;6.03;;;4.80;;
6135;SDS011;24008;42.664;23.372;2023-05-29T06:25:45;10.13;;;4.72;;
6135;SDS011;24008;42.664;23.372;2023-05-29T06:28:13;8.77;;;4.60;;
6135;SDS011;24008;42.664;23.372;2023-05-29T06:30:39;5.57;;;4.30;;
6135;SDS011;24008;42.664;23.372;2023-05-29T06:33:06;5.20;;;4.10;;
6135;SDS011;24008;42.664;23.372;2023-05-29T06:35:33;6.10;;;4.05;;
6135;SDS011;24008;42.664;23.372;2023-05-29T06:38:02;7.10;;;3.10;;
6135;SDS011;24008;42.664;23.372;2023-05-29T06:40:28;4.25;;;2.90;;
6135;SDS011;24008;42.664;23.372;2023-05-29T06:42:55;4.63;;;2.97;;
6135;SDS011;24008;42.664;23.372;2023-05-29T06:45:22;6.95;;;2.78;;
6135;SDS011;24008;42.664;23.372;2023-05-29T06:47:48;4.10;;;2.25;;
6135;SDS011;24008;42.664;23.372;2023-05-29T06:50:23;4.45;;;2.60;;
6135;SDS011;24008;42.664;23.372;2023-05-29T06:52:51;2.38;;;1.73;;
6135;SDS011;24008;42.664;23.372;2023-05-29T06:55:19;3.50;;;1.90;;
6135;SDS011;24008;42.664;23.372;2023-05-29T06:57:46;4.80;;;1.83;;
6135;SDS011;24008;42.664;23.372;2023-05-29T07:00:13;2.30;;;1.83;;
6135;SDS011;24008;42.664;23.372;2023-05-29T07:02:41;3.63;;;2.35;;
6135;SDS011;24008;42.664;23.372;2023-05-29T07:05:08;3.35;;;1.80;;
6135;SDS011;24008;42.664;23.372;2023-05-29T07:07:35;3.97;;;2.08;;
6135;SDS011;24008;42.664;23.372;2023-05-29T07:10:01;6.70;;;3.10;;
6135;SDS011;24008;42.664;23.372;2023-05-29T07:12:29;7.93;;;3.47;;
6135;SDS011;24008;42.664;23.372;2023-05-29T07:14:56;4.22;;;2.38;;
6135;SDS011;24008;42.664;23.372;2023-05-29T07:17:23;2.20;;;1.95;;
6135;SDS011;24008;42.664;23.372;2023-05-29T07:19:49;3.78;;;2.20;;
6135;SDS011;24008;42.664;23.372;2023-05-29T07:22:16;3.28;;;2.22;;
6135;SDS011;24008;42.664;23.372;2023-05-29T07:24:43;3.13;;;2.00;;
6135;SDS011;24008;42.664;23.372;2023-05-29T07:27:10;2.80;;;1.85;;
6135;SDS011;24008;42.664;23.372;2023-05-29T07:29:38;2.97;;;1.80;;
6135;SDS011;24008;42.664;23.372;2023-05-29T07:32:04;3.05;;;2.20;;
6135;SDS011;24008;42.664;23.372;2023-05-29T07:34:31;3.30;;;2.20;;
6135;SDS011;24008;42.664;23.372;2023-05-29T07:36:59;4.97;;;2.38;;
6135;SDS011;24008;42.664;23.372;2023-05-29T07:39:27;5.88;;;2.53;;
6135;SDS011;24008;42.664;23.372;2023-05-29T07:41:54;2.38;;;2.00;;
6135;SDS011;24008;42.664;23.372;2023-05-29T07:44:21;4.50;;;2.65;;
6135;SDS011;24008;42.664;23.372;2023-05-29T07:46:50;5.07;;;2.70;;
6135;SDS011;24008;42.664;23.372;2023-05-29T07:49:16;4.55;;;2.38;;
6135;SDS011;24008;42.664;23.372;2023-05-29T07:51:43;3.78;;;2.42;;
6135;SDS011;24008;42.664;23.372;2023-05-29T07:54:11;4.25;;;2.78;;
6135;SDS011;24008;42.664;23.372;2023-05-29T07:56:37;3.35;;;2.70;;
6135;SDS011;24008;42.664;23.372;2023-05-29T07:59:06;3.30;;;2.50;;
6135;SDS011;24008;42.664;23.372;2023-05-29T08:01:34;2.50;;;2.30;;
6135;SDS011;24008;42.664;23.372;2023-05-29T08:04:02;5.75;;;2.58;;
6135;SDS011;24008;42.664;23.372;2023-05-29T08:06:28;3.20;;;2.08;;
6135;SDS011;24008;42.664;23.372;2023-05-29T08:08:57;3.22;;;2.42;;
6135;SDS011;24008;42.664;23.372;2023-05-29T08:11:24;6.65;;;2.70;;
6135;SDS011;24008;42.664;23.372;2023-05-29T08:13:51;3.10;;;2.63;;
6135;SDS011;24008;42.664;23.372;2023-05-29T08:16:18;10.05;;;5.97;;
6135;SDS011;24008;42.664;23.372;2023-05-29T08:18:45;6.63;;;3.45;;
6135;SDS011;24008;42.664;23.372;2023-05-29T08:21:13;4.93;;;3.08;;
6135;SDS011;24008;42.664;23.372;2023-05-29T08:23:40;5.25;;;2.90;;
6135;SDS011;24008;42.664;23.372;2023-05-29T08:26:06;4.32;;;3.03;;
6135;SDS011;24008;42.664;23.372;2023-05-29T08:28:33;5.70;;;2.80;;
6135;SDS011;24008;42.664;23.372;2023-05-29T08:31:00;4.80;;;2.95;;
6135;SDS011;24008;42.664;23.372;2023-05-29T08:33:26;4.57;;;3.00;;
6135;SDS011;24008;42.664;23.372;2023-05-29T08:35:54;5.75;;;3.33;;
6135;SDS011;24008;42.664;23.372;2023-05-29T08:38:22;3.85;;;3.03;;
6135;SDS011;24008;42.664;23.372;2023-05-29T08:40:50;3.42;;;3.05;;
6135;SDS011;24008;42.664;23.372;2023-05-29T08:43:19;4.28;;;3.20;;
6135;SDS011;24008;42.664;23.372;2023-05-29T08:45:48;4.50;;;3.22;;
6135;SDS011;24008;42.664;23.372;2023-05-29T08:48:20;5.32;;;3.70;;
6135;SDS011;24008;42.664;23.372;2023-05-29T08:50:49;5.22;;;3.00;;
6135;SDS011;24008;42.664;23.372;2023-05-29T08:53:19;3.80;;;2.63;;
6135;SDS011;24008;42.664;23.372;2023-05-29T08:55:48;3.05;;;2.75;;
6135;SDS011;24008;42.664;23.372;2023-05-29T08:58:17;3.85;;;2.55;;
6135;SDS011;24008;42.664;23.372;2023-05-29T09:00:46;6.47;;;2.80;;
6135;SDS011;24008;42.664;23.372;2023-05-29T09:03:13;3.72;;;3.10;;
6135;SDS011;24008;42.664;23.372;2023-05-29T09:05:40;3.33;;;3.03;;
6135;SDS011;24008;42.664;23.372;2023-05-29T09:08:09;4.90;;;2.97;;
6135;SDS011;24008;42.664;23.372;2023-05-29T09:10:37;3.95;;;3.20;;
6135;SDS011;24008;42.664;23.372;2023-05-29T09:13:05;4.03;;;2.85;;
6135;SDS011;24008;42.664;23.372;2023-05-29T09:15:34;4.90;;;3.10;;
6135;SDS011;24008;42.664;23.372;2023-05-29T09:18:01;6.10;;;3.00;;
6135;SDS011;24008;42.664;23.372;2023-05-29T09:20:27;3.40;;;3.10;;
6135;SDS011;24008;42.664;23.372;2023-05-29T09:22:55;4.28;;;3.30;;
6135;SDS011;24008;42.664;23.372;2023-05-29T09:25:24;4.13;;;2.92;;
6135;SDS011;24008;42.664;23.372;2023-05-29T09:27:52;6.22;;;2.95;;
6135;SDS011;24008;42.664;23.372;2023-05-29T09:30:31;5.22;;;2.97;;
6135;SDS011;24008;42.664;23.372;2023-05-29T09:33:00;6.18;;;3.65;;
6135;SDS011;24008;42.664;23.372;2023-05-29T09:35:31;4.68;;;3.10;;
6135;SDS011;24008;42.664;23.372;2023-05-29T09:37:59;5.13;;;3.33;;
6135;SDS011;24008;42.664;23.372;2023-05-29T09:40:26;3.53;;;3.20;;
6135;SDS011;24008;42.664;23.372;2023-05-29T09:42:55;5.45;;;3.10;;
6135;SDS011;24008;42.664;23.372;2023-05-29T09:45:22;5.18;;;3.13;;
6135;SDS011;24008;42.664;23.372;2023-05-29T09:47:52;3.75;;;2.97;;
6135;SDS011;24008;42.664;23.372;2023-05-29T09:50:19;4.97;;;3.03;;
6135;SDS011;24008;42.664;23.372;2023-05-29T09:52:46;3.97;;;3.35;;
6135;SDS011;24008;42.664;23.372;2023-05-29T09:55:17;3.70;;;3.13;;
6135;SDS011;24008;42.664;23.372;2023-05-29T09:57:46;7.65;;;4.00;;
6135;SDS011;24008;42.664;23.372;2023-05-29T10:00:14;4.82;;;3.40;;
6135;SDS011;24008;42.664;23.372;2023-05-29T10:02:41;3.47;;;3.17;;
6135;SDS011;24008;42.664;23.372;2023-05-29T10:05:10;3.63;;;3.30;;
6135;SDS011;24008;42.664;23.372;2023-05-29T10:07:42;6.68;;;3.75;;
6135;SDS011;24008;42.664;23.372;2023-05-29T10:10:11;5.22;;;3.78;;
6135;SDS011;24008;42.664;23.372;2023-05-29T10:12:39;3.63;;;3.08;;
6135;SDS011;24008;42.664;23.372;2023-05-29T10:15:11;3.72;;;2.97;;
6135;SDS011;24008;42.664;23.372;2023-05-29T10:17:39;4.95;;;3.72;;
6135;SDS011;24008;42.664;23.372;2023-05-29T10:20:17;3.63;;;3.30;;
6135;SDS011;24008;42.664;23.372;2023-05-29T10:22:48;5.25;;;4.00;;
6135;SDS011;24008;42.664;23.372;2023-05-29T10:25:17;13.93;;;11.75;;
6135;SDS011;24008;42.664;23.372;2023-05-29T10:27:45;4.70;;;3.70;;
6135;SDS011;24008;42.664;23.372;2023-05-29T10:30:14;4.55;;;3.58;;
6135;SDS011;24008;42.664;23.372;2023-05-29T10:35:58;4.78;;;3.72;;
6135;SDS011;24008;42.664;23.372;2023-05-29T10:38:29;5.47;;;3.90;;
6135;SDS011;24008;42.664;23.372;2023-05-29T10:40:56;5.93;;;4.18;;
6135;SDS011;24008;42.664;23.372;2023-05-29T10:43:57;4.38;;;3.85;;
6135;SDS011;24008;42.664;23.372;2023-05-29T10:49:28;4.82;;;3.88;;
6135;SDS011;24008;42.664;23.372;2023-05-29T10:51:57;7.55;;;3.40;;
6135;SDS011;24008;42.664;23.372;2023-05-29T10:54:25;4.93;;;3.28;;
6135;SDS011;24008;42.664;23.372;2023-05-29T10:56:53;4.30;;;3.90;;
6135;SDS011;24008;42.664;23.372;2023-05-29T10:59:22;5.20;;;3.72;;
6135;SDS011;24008;42.664;23.372;2023-05-29T11:01:52;4.00;;;3.50;;
6135;SDS011;24008;42.664;23.372;2023-05-29T11:04:26;6.53;;;3.60;;
6135;SDS011;24008;42.664;23.372;2023-05-29T11:06:57;5.20;;;3.55;;
6135;SDS011;24008;42.664;23.372;2023-05-29T11:09:27;4.28;;;3.70;;
6135;SDS011;24008;42.664;23.372;2023-05-29T11:12:11;5.53;;;3.42;;
6135;SDS011;24008;42.664;23.372;2023-05-29T11:14:45;5.13;;;3.60;;
6135;SDS011;24008;42.664;23.372;2023-05-29T11:17:32;5.95;;;3.85;;
6135;SDS011;24008;42.664;23.372;2023-05-29T11:20:10;3.90;;;3.50;;
6135;SDS011;24008;42.664;23.372;2023-05-29T11:22:56;4.15;;;3.75;;
6135;SDS011;24008;42.664;23.372;2023-05-29T11:25:28;5.43;;;3.78;;
6135;SDS011;24008;42.664;23.372;2023-05-29T11:27:58;7.95;;;4.05;;
6135;SDS011;24008;42.664;23.372;2023-05-29T11:30:25;10.77;;;4.40;;
6135;SDS011;24008;42.664;23.372;2023-05-29T11:32:52;7.60;;;4.38;;
6135;SDS011;24008;42.664;23.372;2023-05-29T11:35:21;7.07;;;4.00;;
6135;SDS011;24008;42.664;23.372;2023-05-29T11:37:48;6.55;;;3.80;;
6135;SDS011;24008;42.664;23.372;2023-05-29T11:40:16;6.95;;;4.22;;
6135;SDS011;24008;42.664;23.372;2023-05-29T11:42:44;5.57;;;4.28;;
6135;SDS011;24008;42.664;23.372;2023-05-29T11:45:13;8.63;;;4.10;;
6135;SDS011;24008;42.664;23.372;2023-05-29T11:47:51;5.25;;;3.97;;
6135;SDS011;24008;42.664;23.372;2023-05-29T11:50:19;6.50;;;4.18;;
6135;SDS011;24008;42.664;23.372;2023-05-29T11:52:46;5.63;;;3.78;;
6135;SDS011;24008;42.664;23.372;2023-05-29T11:55:13;6.60;;;4.53;;
6135;SDS011;24008;42.664;23.372;2023-05-29T11:57:41;8.90;;;5.20;;
6135;SDS011;24008;42.664;23.372;2023-05-29T12:00:11;9.30;;;6.03;;
6135;SDS011;24008;42.664;23.372;2023-05-29T12:02:39;7.57;;;5.57;;
6135;SDS011;24008;42.664;23.372;2023-05-29T12:05:07;14.70;;;6.00;;
6135;SDS011;24008;42.664;23.372;2023-05-29T12:07:35;9.87;;;6.10;;
6135;SDS011;24008;42.664;23.372;2023-05-29T12:10:10;14.23;;;7.00;;
6135;SDS011;24008;42.664;23.372;2023-05-29T12:12:38;9.80;;;6.20;;
6135;SDS011;24008;42.664;23.372;2023-05-29T12:15:07;9.00;;;6.13;;
6135;SDS011;24008;42.664;23.372;2023-05-29T12:17:35;7.43;;;5.90;;
6135;SDS011;24008;42.664;23.372;2023-05-29T12:20:03;9.73;;;5.57;;
6135;SDS011;24008;42.664;23.372;2023-05-29T12:22:32;7.17;;;5.47;;
6135;SDS011;24008;42.664;23.372;2023-05-29T12:25:05;7.60;;;5.83;;
6135;SDS011;24008;42.664;23.372;2023-05-29T12:27:32;6.50;;;5.03;;
6135;SDS011;24008;42.664;23.372;2023-05-29T12:30:03;5.77;;;4.90;;
6135;SDS011;24008;42.664;23.372;2023-05-29T12:32:35;13.77;;;4.40;;
6135;SDS011;24008;42.664;23.372;2023-05-29T12:35:09;6.37;;;3.73;;
6135;SDS011;24008;42.664;23.372;2023-05-29T12:37:42;6.03;;;3.57;;
6135;SDS011;24008;42.664;23.372;2023-05-29T12:40:10;9.70;;;3.70;;
6135;SDS011;24008;42.664;23.372;2023-05-29T12:42:46;11.00;;;4.77;;
6135;SDS011;24008;42.664;23.372;2023-05-29T12:45:14;8.63;;;4.93;;
6135;SDS011;24008;42.664;23.372;2023-05-29T12:47:45;10.40;;;5.30;;
6135;SDS011;24008;42.664;23.372;2023-05-29T12:50:21;12.57;;;4.97;;
6135;SDS011;24008;42.664;23.372;2023-05-29T12:52:52;9.00;;;5.47;;
6135;SDS011;24008;42.664;23.372;2023-05-29T12:55:23;10.83;;;5.00;;
6135;SDS011;24008;42.664;23.372;2023-05-29T12:57:50;6.90;;;5.20;;
6135;SDS011;24008;42.664;23.372;2023-05-29T13:00:17;7.80;;;5.20;;
6135;SDS011;24008;42.664;23.372;2023-05-29T13:02:46;6.33;;;5.40;;
6135;SDS011;24008;42.664;23.372;2023-05-29T13:05:14;7.00;;;5.03;;
6135;SDS011;24008;42.664;23.372;2023-05-29T13:07:43;7.67;;;4.73;;
6135;SDS011;24008;42.664;23.372;2023-05-29T13:10:11;7.47;;;5.03;;
6135;SDS011;24008;42.664;23.372;2023-05-29T13:12:37;7.07;;;5.47;;
6135;SDS011;24008;42.664;23.372;2023-05-29T13:15:05;9.20;;;6.00;;
6135;SDS011;24008;42.664;23.372;2023-05-29T13:17:32;7.73;;;5.77;;
6135;SDS011;24008;42.664;23.372;2023-05-29T13:20:01;7.80;;;5.87;;
6135;SDS011;24008;42.664;23.372;2023-05-29T13:22:31;10.50;;;6.60;;
6135;SDS011;24008;42.664;23.372;2023-05-29T13:24:58;9.83;;;7.50;;
6135;SDS011;24008;42.664;23.372;2023-05-29T13:27:25;10.33;;;7.10;;
6135;SDS011;24008;42.664;23.372;2023-05-29T13:29:51;7.93;;;6.40;;
6135;SDS011;24008;42.664;23.372;2023-05-29T13:32:19;9.10;;;5.97;;
6135;SDS011;24008;42.664;23.372;2023-05-29T13:34:45;9.87;;;7.20;;
6135;SDS011;24008;42.664;23.372;2023-05-29T13:37:14;6.87;;;6.00;;
6135;SDS011;24008;42.664;23.372;2023-05-29T13:39:40;7.53;;;5.87;;
6135;SDS011;24008;42.664;23.372;2023-05-29T13:42:07;10.23;;;6.93;;
6135;SDS011;24008;42.664;23.372;2023-05-29T13:44:35;10.17;;;7.07;;
6135;SDS011;24008;42.664;23.372;2023-05-29T13:47:04;9.30;;;6.90;;
6135;SDS011;24008;42.664;23.372;2023-05-29T13:49:32;8.83;;;6.67;;
6135;SDS011;24008;42.664;23.372;2023-05-29T13:51:59;9.97;;;6.20;;
6135;SDS011;24008;42.664;23.372;2023-05-29T13:54:27;13.50;;;7.50;;
6135;SDS011;24008;42.664;23.372;2023-05-29T13:56:55;8.93;;;6.40;;
6135;SDS011;24008;42.664;23.372;2023-05-29T13:59:23;11.50;;;6.83;;
6135;SDS011;24008;42.664;23.372;2023-05-29T14:01:50;13.53;;;6.83;;
6135;SDS011;24008;42.664;23.372;2023-05-29T14:04:17;11.10;;;6.63;;
6135;SDS011;24008;42.664;23.372;2023-05-29T14:06:43;9.37;;;7.30;;
6135;SDS011;24008;42.664;23.372;2023-05-29T14:09:30;12.53;;;6.37;;
6135;SDS011;24008;42.664;23.372;2023-05-29T14:11:57;3.87;;;3.20;;
6135;SDS011;24008;42.664;23.372;2023-05-29T14:14:25;4.27;;;2.83;;
6135;SDS011;24008;42.664;23.372;2023-05-29T14:16:52;4.00;;;2.83;;
6135;SDS011;24008;42.664;23.372;2023-05-29T14:19:19;3.13;;;2.07;;
6135;SDS011;24008;42.664;23.372;2023-05-29T14:21:47;2.53;;;1.90;;
6135;SDS011;24008;42.664;23.372;2023-05-29T14:24:14;3.20;;;2.40;;
6135;SDS011;24008;42.664;23.372;2023-05-29T14:26:44;5.67;;;2.10;;
6135;SDS011;24008;42.664;23.372;2023-05-29T14:29:12;4.00;;;1.73;;
6135;SDS011;24008;42.664;23.372;2023-05-29T14:31:39;9.90;;;5.37;;
6135;SDS011;24008;42.664;23.372;2023-05-29T14:34:06;3.77;;;2.27;;
6135;SDS011;24008;42.664;23.372;2023-05-29T14:36:32;11.30;;;5.60;;
6135;SDS011;24008;42.664;23.372;2023-05-29T14:39:00;6.57;;;4.10;;
6135;SDS011;24008;42.664;23.372;2023-05-29T14:41:27;6.47;;;2.27;;
6135;SDS011;24008;42.664;23.372;2023-05-29T14:43:55;8.20;;;2.47;;
6135;SDS011;24008;42.664;23.372;2023-05-29T14:46:23;3.97;;;2.50;;
6135;SDS011;24008;42.664;23.372;2023-05-29T14:48:50;5.07;;;3.20;;
6135;SDS011;24008;42.664;23.372;2023-05-29T14:51:16;6.20;;;3.37;;
6135;SDS011;24008;42.664;23.372;2023-05-29T14:53:44;9.67;;;4.63;;